sensor_id;sensor_type;location;lat;lon;timestamp;P1;durP1;ratioP1;P2;durP2;ratioP2
162;SDS011;3946;48.958;8.284;2024-01-30T00:00:32;1.30;;;0.80;;
162;SDS011;3946;48.958;8.284;2024-01-30T00:03:18;1.40;;;1.10;;
162;SDS011;3946;48.958;8.284;2024-01-30T00:06:03;1.30;;;0.80;;
162;SDS011;3946;48.958;8.284;2024-01-30T00:08:49;1.30;;;0.80;;
162;SDS011;3946;48.958;8.284;2024-01-30T00:11:34;1.30;;;0.80;;
162;SDS011;3946;48.958;8.284;2024-01-30T00:14:20;1.30;;;0.80;;
162;SDS011;3946;48.958;8.284;2024-01-30T00:17:06;6.90;;;4.00;;
162;SDS011;3946;48.958;8.284;2024-01-30T00:19:52;1.30;;;0.80;;
162;SDS011;3946;48.958;8.284;2024-01-30T00:22:37;1.30;;;0.90;;
162;SDS011;3946;48.958;8.284;2024-01-30T00:25:22;1.30;;;0.80;;
162;SDS011;3946;48.958;8.284;2024-01-30T00:28:08;1.30;;;0.80;;
162;SDS011;3946;48.958;8.284;2024-01-30T00:30:53;1.30;;;0.80;;
162;SDS011;3946;48.958;8.284;2024-01-30T00:33:40;1.30;;;0.80;;
162;SDS011;3946;48.958;8.284;2024-01-30T00:36:25;1.30;;;0.90;;
162;SDS011;3946;48.958;8.284;2024-01-30T00:39:13;1.30;;;0.80;;
162;SDS011;3946;48.958;8.284;2024-01-30T00:41:59;1.30;;;0.80;;
162;SDS011;3946;48.958;8.284;2024-01-30T00:44:45;1.30;;;0.80;;
162;SDS011;3946;48.958;8.284;2024-01-30T00:47:30;1.80;;;1.50;;
162;SDS011;3946;48.958;8.284;2024-01-30T00:50:18;1.30;;;0.80;;
162;SDS011;3946;48.958;8.284;2024-01-30T00:53:03;1.30;;;0.80;;
162;SDS011;3946;48.958;8.284;2024-01-30T00:55:49;1.30;;;0.80;;
162;SDS011;3946;48.958;8.284;2024-01-30T00:58:34;1.30;;;0.80;;
162;SDS011;3946;48.958;8.284;2024-01-30T01:01:19;1.30;;;0.80;;
162;SDS011;3946;48.958;8.284;2024-01-30T01:04:05;1.30;;;0.70;;
162;SDS011;3946;48.958;8.284;2024-01-30T01:06:52;1.30;;;0.80;;
162;SDS011;3946;48.958;8.284;2024-01-30T01:09:37;1.30;;;0.80;;
162;SDS011;3946;48.958;8.284;2024-01-30T01:12:22;1.30;;;0.80;;
162;SDS011;3946;48.958;8.284;2024-01-30T01:15:08;7.03;;;3.00;;
162;SDS011;3946;48.958;8.284;2024-01-30T01:17:54;1.30;;;0.80;;
162;SDS011;3946;48.958;8.284;2024-01-30T01:20:39;1.30;;;0.80;;
162;SDS011;3946;48.958;8.284;2024-01-30T01:23:26;1.60;;;1.30;;
162;SDS011;3946;48.958;8.284;2024-01-30T01:26:11;1.30;;;0.87;;
162;SDS011;3946;48.958;8.284;2024-01-30T01:28:56;1.30;;;0.80;;
162;SDS011;3946;48.958;8.284;2024-01-30T01:31:42;1.30;;;0.80;;
162;SDS011;3946;48.958;8.284;2024-01-30T01:34:28;1.30;;;0.73;;
162;SDS011;3946;48.958;8.284;2024-01-30T01:37:13;1.30;;;0.80;;
162;SDS011;3946;48.958;8.284;2024-01-30T01:40:00;1.30;;;0.80;;
162;SDS011;3946;48.958;8.284;2024-01-30T01:42:45;14.23;;;4.10;;
162;SDS011;3946;48.958;8.284;2024-01-30T01:45:30;7.07;;;3.80;;
162;SDS011;3946;48.958;8.284;2024-01-30T01:48:16;31.40;;;12.07;;
162;SDS011;3946;48.958;8.284;2024-01-30T01:51:01;1.30;;;0.73;;
162;SDS011;3946;48.958;8.284;2024-01-30T01:53:47;1.33;;;0.87;;
162;SDS011;3946;48.958;8.284;2024-01-30T01:56:34;1.30;;;0.80;;
162;SDS011;3946;48.958;8.284;2024-01-30T01:59:20;1.30;;;0.80;;
162;SDS011;3946;48.958;8.284;2024-01-30T02:02:07;1.30;;;0.80;;
162;SDS011;3946;48.958;8.284;2024-01-30T02:04:56;1.30;;;0.80;;
162;SDS011;3946;48.958;8.284;2024-01-30T02:07:42;1.30;;;0.80;;
162;SDS011;3946;48.958;8.284;2024-01-30T02:10:28;1.30;;;0.80;;
162;SDS011;3946;48.958;8.284;2024-01-30T02:13:14;1.30;;;0.80;;
162;SDS011;3946;48.958;8.284;2024-01-30T02:15:59;1.87;;;1.73;;
162;SDS011;3946;48.958;8.284;2024-01-30T02:18:45;2.67;;;2.17;;
162;SDS011;3946;48.958;8.284;2024-01-30T02:21:33;1.30;;;0.80;;
162;SDS011;3946;48.958;8.284;2024-01-30T02:24:18;1.30;;;0.80;;
162;SDS011;3946;48.958;8.284;2024-01-30T02:27:03;1.30;;;0.80;;
162;SDS011;3946;48.958;8.284;2024-01-30T02:29:49;1.40;;;0.80;;
162;SDS011;3946;48.958;8.284;2024-01-30T02:32:34;8.37;;;7.93;;
162;SDS011;3946;48.958;8.284;2024-01-30T02:35:19;1.30;;;0.80;;
162;SDS011;3946;48.958;8.284;2024-01-30T02:38:06;1.30;;;0.80;;
162;SDS011;3946;48.958;8.284;2024-01-30T02:40:52;1.30;;;0.80;;
162;SDS011;3946;48.958;8.284;2024-01-30T02:43:37;1.30;;;0.80;;
162;SDS011;3946;48.958;8.284;2024-01-30T02:46:22;1.30;;;0.80;;
162;SDS011;3946;48.958;8.284;2024-01-30T02:49:08;1.30;;;0.80;;
162;SDS011;3946;48.958;8.284;2024-01-30T02:51:53;1.30;;;0.80;;
162;SDS011;3946;48.958;8.284;2024-01-30T02:54:40;1.30;;;0.80;;
162;SDS011;3946;48.958;8.284;2024-01-30T02:57:25;1.30;;;0.80;;
162;SDS011;3946;48.958;8.284;2024-01-30T03:00:11;1.30;;;0.80;;
162;SDS011;3946;48.958;8.284;2024-01-30T03:02:57;1.30;;;0.90;;
162;SDS011;3946;48.958;8.284;2024-01-30T03:05:43;1.30;;;0.80;;
162;SDS011;3946;48.958;8.284;2024-01-30T03:08:28;1.30;;;0.80;;
162;SDS011;3946;48.958;8.284;2024-01-30T03:11:15;1.30;;;0.80;;
162;SDS011;3946;48.958;8.284;2024-01-30T03:14:00;1.30;;;0.80;;
162;SDS011;3946;48.958;8.284;2024-01-30T03:16:46;1.30;;;0.80;;
162;SDS011;3946;48.958;8.284;2024-01-30T03:19:31;1.30;;;0.80;;
162;SDS011;3946;48.958;8.284;2024-01-30T03:22:17;1.30;;;0.80;;
162;SDS011;3946;48.958;8.284;2024-01-30T03:25:02;3.93;;;3.43;;
162;SDS011;3946;48.958;8.284;2024-01-30T03:27:49;1.30;;;0.80;;
162;SDS011;3946;48.958;8.284;2024-01-30T03:30:34;1.30;;;0.80;;
162;SDS011;3946;48.958;8.284;2024-01-30T03:33:20;1.30;;;0.80;;
162;SDS011;3946;48.958;8.284;2024-01-30T03:36:06;1.30;;;0.70;;
162;SDS011;3946;48.958;8.284;2024-01-30T03:38:51;1.30;;;0.80;;
162;SDS011;3946;48.958;8.284;2024-01-30T03:41:36;1.30;;;0.80;;
162;SDS011;3946;48.958;8.284;2024-01-30T03:44:23;1.30;;;0.80;;
162;SDS011;3946;48.958;8.284;2024-01-30T03:47:08;1.30;;;0.80;;
162;SDS011;3946;48.958;8.284;2024-01-30T03:49:54;1.30;;;0.80;;
162;SDS011;3946;48.958;8.284;2024-01-30T03:52:39;1.30;;;0.80;;
162;SDS011;3946;48.958;8.284;2024-01-30T03:55:24;1.30;;;0.80;;
162;SDS011;3946;48.958;8.284;2024-01-30T03:58:10;1.30;;;0.80;;
162;SDS011;3946;48.958;8.284;2024-01-30T04:00:56;1.30;;;0.80;;
162;SDS011;3946;48.958;8.284;2024-01-30T04:03:42;1.30;;;0.80;;
162;SDS011;3946;48.958;8.284;2024-01-30T04:06:27;1.30;;;0.80;;
162;SDS011;3946;48.958;8.284;2024-01-30T04:09:13;1.30;;;0.80;;
162;SDS011;3946;48.958;8.284;2024-01-30T04:11:58;1.30;;;0.80;;
162;SDS011;3946;48.958;8.284;2024-01-30T04:14:44;1.30;;;0.80;;
162;SDS011;3946;48.958;8.284;2024-01-30T04:17:30;1.30;;;0.80;;
162;SDS011;3946;48.958;8.284;2024-01-30T04:20:16;1.30;;;0.80;;
162;SDS011;3946;48.958;8.284;2024-01-30T04:23:02;1.30;;;0.80;;
162;SDS011;3946;48.958;8.284;2024-01-30T04:25:47;1.90;;;1.37;;
162;SDS011;3946;48.958;8.284;2024-01-30T04:28:32;1.30;;;0.80;;
162;SDS011;3946;48.958;8.284;2024-01-30T04:31:18;1.30;;;0.80;;
162;SDS011;3946;48.958;8.284;2024-01-30T04:34:04;1.30;;;0.80;;
162;SDS011;3946;48.958;8.284;2024-01-30T04:36:50;1.30;;;0.80;;
162;SDS011;3946;48.958;8.284;2024-01-30T04:39:35;1.30;;;0.80;;
162;SDS011;3946;48.958;8.284;2024-01-30T04:42:21;1.30;;;0.80;;
162;SDS011;3946;48.958;8.284;2024-01-30T04:45:06;16.77;;;9.13;;
162;SDS011;3946;48.958;8.284;2024-01-30T04:47:52;1.30;;;0.80;;
162;SDS011;3946;48.958;8.284;2024-01-30T04:50:39;1.30;;;0.80;;
162;SDS011;3946;48.958;8.284;2024-01-30T04:53:24;1.30;;;0.80;;
162;SDS011;3946;48.958;8.284;2024-01-30T04:56:09;1.30;;;0.80;;
162;SDS011;3946;48.958;8.284;2024-01-30T04:58:55;1.30;;;0.80;;
162;SDS011;3946;48.958;8.284;2024-01-30T05:01:40;1.30;;;0.80;;
162;SDS011;3946;48.958;8.284;2024-01-30T05:04:25;1.30;;;0.80;;
162;SDS011;3946;48.958;8.284;2024-01-30T05:07:12;1.30;;;0.80;;
162;SDS011;3946;48.958;8.284;2024-01-30T05:09:58;1.30;;;0.80;;
162;SDS011;3946;48.958;8.284;2024-01-30T05:12:43;1.30;;;0.80;;
162;SDS011;3946;48.958;8.284;2024-01-30T05:15:29;1.30;;;0.80;;
162;SDS011;3946;48.958;8.284;2024-01-30T05:18:14;1.30;;;0.80;;
162;SDS011;3946;48.958;8.284;2024-01-30T05:20:59;1.30;;;0.80;;
162;SDS011;3946;48.958;8.284;2024-01-30T05:23:47;2.80;;;2.60;;
162;SDS011;3946;48.958;8.284;2024-01-30T05:26:32;1.30;;;0.80;;
162;SDS011;3946;48.958;8.284;2024-01-30T05:29:17;12.03;;;9.80;;
162;SDS011;3946;48.958;8.284;2024-01-30T05:32:03;1.30;;;0.80;;
162;SDS011;3946;48.958;8.284;2024-01-30T05:34:50;1.30;;;0.80;;
162;SDS011;3946;48.958;8.284;2024-01-30T05:37:35;1.30;;;0.80;;
162;SDS011;3946;48.958;8.284;2024-01-30T05:40:22;1.30;;;0.80;;
162;SDS011;3946;48.958;8.284;2024-01-30T05:43:07;1.30;;;0.80;;
162;SDS011;3946;48.958;8.284;2024-01-30T05:45:52;1.30;;;0.80;;
162;SDS011;3946;48.958;8.284;2024-01-30T05:48:38;1.30;;;0.80;;
162;SDS011;3946;48.958;8.284;2024-01-30T05:51:23;1.30;;;0.80;;
162;SDS011;3946;48.958;8.284;2024-01-30T05:54:09;1.30;;;0.80;;
162;SDS011;3946;48.958;8.284;2024-01-30T05:56:55;1.30;;;0.90;;
162;SDS011;3946;48.958;8.284;2024-01-30T05:59:41;1.30;;;0.80;;
162;SDS011;3946;48.958;8.284;2024-01-30T06:02:27;1.30;;;0.80;;
162;SDS011;3946;48.958;8.284;2024-01-30T06:05:12;1.30;;;0.80;;
162;SDS011;3946;48.958;8.284;2024-01-30T06:07:58;1.30;;;0.80;;
162;SDS011;3946;48.958;8.284;2024-01-30T06:10:43;1.30;;;0.80;;
162;SDS011;3946;48.958;8.284;2024-01-30T06:13:30;1.30;;;0.90;;
162;SDS011;3946;48.958;8.284;2024-01-30T06:16:15;1.30;;;0.80;;
162;SDS011;3946;48.958;8.284;2024-01-30T06:19:00;1.30;;;0.80;;
162;SDS011;3946;48.958;8.284;2024-01-30T06:21:46;1.30;;;0.80;;
162;SDS011;3946;48.958;8.284;2024-01-30T06:24:31;1.30;;;0.80;;
162;SDS011;3946;48.958;8.284;2024-01-30T06:27:17;1.30;;;0.80;;
162;SDS011;3946;48.958;8.284;2024-01-30T06:30:04;1.30;;;0.80;;
162;SDS011;3946;48.958;8.284;2024-01-30T06:32:50;1.30;;;0.80;;
162;SDS011;3946;48.958;8.284;2024-01-30T06:35:36;1.30;;;0.80;;
162;SDS011;3946;48.958;8.284;2024-01-30T06:38:23;1.70;;;1.47;;
162;SDS011;3946;48.958;8.284;2024-01-30T06:41:09;1.93;;;1.87;;
162;SDS011;3946;48.958;8.284;2024-01-30T06:43:54;1.30;;;0.80;;
162;SDS011;3946;48.958;8.284;2024-01-30T06:46:41;1.30;;;0.80;;
162;SDS011;3946;48.958;8.284;2024-01-30T06:49:26;1.30;;;0.80;;
162;SDS011;3946;48.958;8.284;2024-01-30T06:52:12;1.30;;;0.80;;
162;SDS011;3946;48.958;8.284;2024-01-30T06:54:57;1.30;;;0.80;;
162;SDS011;3946;48.958;8.284;2024-01-30T06:57:43;1.30;;;0.80;;
162;SDS011;3946;48.958;8.284;2024-01-30T07:00:28;1.30;;;0.80;;
162;SDS011;3946;48.958;8.284;2024-01-30T07:03:15;1.30;;;0.80;;
162;SDS011;3946;48.958;8.284;2024-01-30T07:06:00;1.30;;;0.80;;
162;SDS011;3946;48.958;8.284;2024-01-30T07:08:46;1.30;;;0.80;;
162;SDS011;3946;48.958;8.284;2024-01-30T07:11:31;1.30;;;0.80;;
162;SDS011;3946;48.958;8.284;2024-01-30T07:14:17;1.30;;;0.80;;
162;SDS011;3946;48.958;8.284;2024-01-30T07:17:02;1.30;;;0.80;;
162;SDS011;3946;48.958;8.284;2024-01-30T07:19:49;1.30;;;0.80;;
162;SDS011;3946;48.958;8.284;2024-01-30T07:22:34;1.30;;;0.80;;
162;SDS011;3946;48.958;8.284;2024-01-30T07:25:20;1.30;;;0.80;;
162;SDS011;3946;48.958;8.284;2024-01-30T07:28:05;1.50;;;1.20;;
162;SDS011;3946;48.958;8.284;2024-01-30T07:30:50;1.30;;;0.80;;
162;SDS011;3946;48.958;8.284;2024-01-30T07:33:36;1.30;;;0.80;;
162;SDS011;3946;48.958;8.284;2024-01-30T07:36:22;1.30;;;0.80;;
162;SDS011;3946;48.958;8.284;2024-01-30T07:39:08;1.30;;;0.80;;
162;SDS011;3946;48.958;8.284;2024-01-30T07:41:54;1.30;;;0.80;;
162;SDS011;3946;48.958;8.284;2024-01-30T07:44:39;1.30;;;0.80;;
162;SDS011;3946;48.958;8.284;2024-01-30T07:47:24;1.40;;;0.80;;
162;SDS011;3946;48.958;8.284;2024-01-30T07:50:10;1.30;;;0.90;;
162;SDS011;3946;48.958;8.284;2024-01-30T07:52:56;1.30;;;0.80;;
162;SDS011;3946;48.958;8.284;2024-01-30T07:55:44;1.30;;;0.80;;
162;SDS011;3946;48.958;8.284;2024-01-30T07:58:30;1.30;;;0.80;;
162;SDS011;3946;48.958;8.284;2024-01-30T08:01:15;1.30;;;0.80;;
162;SDS011;3946;48.958;8.284;2024-01-30T08:04:01;1.30;;;0.80;;
162;SDS011;3946;48.958;8.284;2024-01-30T08:06:46;1.30;;;0.80;;
162;SDS011;3946;48.958;8.284;2024-01-30T08:09:33;1.30;;;0.80;;
162;SDS011;3946;48.958;8.284;2024-01-30T08:12:18;1.30;;;0.70;;
162;SDS011;3946;48.958;8.284;2024-01-30T08:15:04;1.30;;;0.80;;
162;SDS011;3946;48.958;8.284;2024-01-30T08:17:50;1.30;;;0.80;;
162;SDS011;3946;48.958;8.284;2024-01-30T08:20:39;1.60;;;1.33;;
162;SDS011;3946;48.958;8.284;2024-01-30T08:23:24;1.30;;;0.80;;
162;SDS011;3946;48.958;8.284;2024-01-30T08:26:11;1.30;;;0.80;;
162;SDS011;3946;48.958;8.284;2024-01-30T08:28:56;1.30;;;0.80;;
162;SDS011;3946;48.958;8.284;2024-01-30T08:31:41;1.30;;;0.80;;
162;SDS011;3946;48.958;8.284;2024-01-30T08:34:28;1.30;;;0.80;;
162;SDS011;3946;48.958;8.284;2024-01-30T08:37:13;1.30;;;0.80;;
162;SDS011;3946;48.958;8.284;2024-01-30T08:39:59;1.30;;;0.80;;
162;SDS011;3946;48.958;8.284;2024-01-30T08:42:47;1.30;;;0.80;;
162;SDS011;3946;48.958;8.284;2024-01-30T08:45:32;1.30;;;0.80;;
162;SDS011;3946;48.958;8.284;2024-01-30T08:48:18;1.30;;;0.80;;
162;SDS011;3946;48.958;8.284;2024-01-30T08:51:03;1.30;;;0.80;;
162;SDS011;3946;48.958;8.284;2024-01-30T08:53:51;1.30;;;0.80;;
162;SDS011;3946;48.958;8.284;2024-01-30T08:56:37;1.30;;;0.80;;
162;SDS011;3946;48.958;8.284;2024-01-30T08:59:24;1.30;;;0.80;;
162;SDS011;3946;48.958;8.284;2024-01-30T09:02:09;1.83;;;1.53;;
162;SDS011;3946;48.958;8.284;2024-01-30T09:04:56;1.30;;;0.80;;
162;SDS011;3946;48.958;8.284;2024-01-30T09:07:42;1.30;;;0.80;;
162;SDS011;3946;48.958;8.284;2024-01-30T09:10:27;1.30;;;0.80;;
162;SDS011;3946;48.958;8.284;2024-01-30T09:13:12;1.30;;;0.70;;
162;SDS011;3946;48.958;8.284;2024-01-30T09:15:59;1.30;;;0.80;;
162;SDS011;3946;48.958;8.284;2024-01-30T09:18:44;1.30;;;0.80;;
162;SDS011;3946;48.958;8.284;2024-01-30T09:21:30;1.30;;;0.80;;
162;SDS011;3946;48.958;8.284;2024-01-30T09:24:15;1.30;;;0.80;;
162;SDS011;3946;48.958;8.284;2024-01-30T09:27:00;1.30;;;0.80;;
162;SDS011;3946;48.958;8.284;2024-01-30T09:29:46;1.30;;;0.80;;
162;SDS011;3946;48.958;8.284;2024-01-30T09:32:32;1.30;;;0.80;;
162;SDS011;3946;48.958;8.284;2024-01-30T09:35:17;1.30;;;0.70;;
162;SDS011;3946;48.958;8.284;2024-01-30T09:38:03;1.30;;;0.80;;
162;SDS011;3946;48.958;8.284;2024-01-30T09:40:50;1.30;;;0.80;;
162;SDS011;3946;48.958;8.284;2024-01-30T09:43:39;1.30;;;0.80;;
162;SDS011;3946;48.958;8.284;2024-01-30T09:46:26;1.93;;;1.70;;
162;SDS011;3946;48.958;8.284;2024-01-30T09:49:14;1.30;;;0.80;;
162;SDS011;3946;48.958;8.284;2024-01-30T09:51:59;1.30;;;0.80;;
162;SDS011;3946;48.958;8.284;2024-01-30T09:54:45;1.30;;;0.80;;
162;SDS011;3946;48.958;8.284;2024-01-30T09:57:30;1.30;;;0.80;;
162;SDS011;3946;48.958;8.284;2024-01-30T10:00:16;1.30;;;0.80;;
162;SDS011;3946;48.958;8.284;2024-01-30T10:03:01;1.30;;;0.80;;
162;SDS011;3946;48.958;8.284;2024-01-30T10:05:50;1.30;;;0.80;;
162;SDS011;3946;48.958;8.284;2024-01-30T10:08:36;1.30;;;0.80;;
162;SDS011;3946;48.958;8.284;2024-01-30T10:11:21;1.30;;;0.80;;
162;SDS011;3946;48.958;8.284;2024-01-30T10:14:07;1.30;;;0.80;;
162;SDS011;3946;48.958;8.284;2024-01-30T10:16:52;1.30;;;0.70;;
162;SDS011;3946;48.958;8.284;2024-01-30T10:19:38;1.60;;;1.20;;
162;SDS011;3946;48.958;8.284;2024-01-30T10:22:26;1.30;;;0.80;;
162;SDS011;3946;48.958;8.284;2024-01-30T10:25:11;3.73;;;1.10;;
162;SDS011;3946;48.958;8.284;2024-01-30T10:27:56;1.30;;;0.80;;
162;SDS011;3946;48.958;8.284;2024-01-30T10:30:42;1.30;;;1.10;;
162;SDS011;3946;48.958;8.284;2024-01-30T10:33:27;1.30;;;0.80;;
162;SDS011;3946;48.958;8.284;2024-01-30T10:36:13;1.30;;;0.80;;
162;SDS011;3946;48.958;8.284;2024-01-30T10:39:01;1.30;;;0.80;;
162;SDS011;3946;48.958;8.284;2024-01-30T10:41:47;1.30;;;0.70;;
162;SDS011;3946;48.958;8.284;2024-01-30T10:44:36;1.60;;;0.90;;
162;SDS011;3946;48.958;8.284;2024-01-30T10:47:25;1.30;;;0.70;;
162;SDS011;3946;48.958;8.284;2024-01-30T10:50:12;11.20;;;9.33;;
162;SDS011;3946;48.958;8.284;2024-01-30T10:52:58;1.30;;;0.80;;
162;SDS011;3946;48.958;8.284;2024-01-30T10:55:45;2.33;;;1.97;;
162;SDS011;3946;48.958;8.284;2024-01-30T10:58:32;1.30;;;0.80;;
162;SDS011;3946;48.958;8.284;2024-01-30T11:01:17;1.30;;;0.80;;
162;SDS011;3946;48.958;8.284;2024-01-30T11:04:03;1.30;;;0.73;;
162;SDS011;3946;48.958;8.284;2024-01-30T11:06:50;1.30;;;0.80;;
162;SDS011;3946;48.958;8.284;2024-01-30T11:09:36;1.30;;;0.80;;
162;SDS011;3946;48.958;8.284;2024-01-30T11:12:23;1.30;;;0.70;;
162;SDS011;3946;48.958;8.284;2024-01-30T11:15:12;1.30;;;0.80;;
162;SDS011;3946;48.958;8.284;2024-01-30T11:17:58;1.30;;;0.70;;
162;SDS011;3946;48.958;8.284;2024-01-30T11:20:43;1.30;;;0.70;;
162;SDS011;3946;48.958;8.284;2024-01-30T11:23:33;1.20;;;0.70;;
162;SDS011;3946;48.958;8.284;2024-01-30T11:26:18;1.30;;;0.70;;
162;SDS011;3946;48.958;8.284;2024-01-30T11:29:09;1.27;;;0.80;;
162;SDS011;3946;48.958;8.284;2024-01-30T11:31:58;2.27;;;1.67;;
162;SDS011;3946;48.958;8.284;2024-01-30T11:34:44;1.30;;;0.80;;
162;SDS011;3946;48.958;8.284;2024-01-30T11:37:29;1.27;;;0.80;;
162;SDS011;3946;48.958;8.284;2024-01-30T11:40:16;1.30;;;0.70;;
162;SDS011;3946;48.958;8.284;2024-01-30T11:43:02;5.00;;;2.80;;
162;SDS011;3946;48.958;8.284;2024-01-30T11:45:50;1.30;;;0.80;;
162;SDS011;3946;48.958;8.284;2024-01-30T11:48:36;1.30;;;0.80;;
162;SDS011;3946;48.958;8.284;2024-01-30T11:51:21;2.13;;;2.00;;
162;SDS011;3946;48.958;8.284;2024-01-30T11:54:07;1.30;;;0.70;;
162;SDS011;3946;48.958;8.284;2024-01-30T11:56:54;1.30;;;0.80;;
162;SDS011;3946;48.958;8.284;2024-01-30T11:59:39;1.30;;;0.80;;
162;SDS011;3946;48.958;8.284;2024-01-30T12:02:26;1.30;;;0.70;;
162;SDS011;3946;48.958;8.284;2024-01-30T12:05:12;1.30;;;0.80;;
162;SDS011;3946;48.958;8.284;2024-01-30T12:07:57;1.30;;;0.73;;
162;SDS011;3946;48.958;8.284;2024-01-30T12:10:43;4.70;;;1.37;;
162;SDS011;3946;48.958;8.284;2024-01-30T12:13:28;1.30;;;0.70;;
162;SDS011;3946;48.958;8.284;2024-01-30T12:16:14;1.30;;;0.80;;
162;SDS011;3946;48.958;8.284;2024-01-30T12:19:01;2.00;;;1.07;;
162;SDS011;3946;48.958;8.284;2024-01-30T12:21:46;1.30;;;0.80;;
162;SDS011;3946;48.958;8.284;2024-01-30T12:24:31;1.30;;;0.80;;
162;SDS011;3946;48.958;8.284;2024-01-30T12:27:17;1.30;;;0.70;;
162;SDS011;3946;48.958;8.284;2024-01-30T12:30:05;3.33;;;1.10;;
162;SDS011;3946;48.958;8.284;2024-01-30T12:32:50;1.90;;;1.27;;
162;SDS011;3946;48.958;8.284;2024-01-30T12:35:37;2.07;;;1.23;;
162;SDS011;3946;48.958;8.284;2024-01-30T12:38:22;1.53;;;0.90;;
162;SDS011;3946;48.958;8.284;2024-01-30T12:41:08;1.30;;;0.80;;
162;SDS011;3946;48.958;8.284;2024-01-30T12:43:53;1.30;;;0.80;;
162;SDS011;3946;48.958;8.284;2024-01-30T12:46:39;1.30;;;0.70;;
162;SDS011;3946;48.958;8.284;2024-01-30T12:49:24;1.30;;;0.80;;
162;SDS011;3946;48.958;8.284;2024-01-30T12:52:11;1.30;;;0.70;;
162;SDS011;3946;48.958;8.284;2024-01-30T12:54:57;1.30;;;0.70;;
162;SDS011;3946;48.958;8.284;2024-01-30T12:57:43;1.20;;;0.70;;
162;SDS011;3946;48.958;8.284;2024-01-30T13:00:28;1.20;;;0.70;;
162;SDS011;3946;48.958;8.284;2024-01-30T13:03:14;1.50;;;1.10;;
162;SDS011;3946;48.958;8.284;2024-01-30T13:06:00;1.30;;;0.70;;
162;SDS011;3946;48.958;8.284;2024-01-30T13:08:46;1.30;;;0.70;;
162;SDS011;3946;48.958;8.284;2024-01-30T13:11:32;1.63;;;1.20;;
162;SDS011;3946;48.958;8.284;2024-01-30T13:14:18;1.30;;;0.90;;
162;SDS011;3946;48.958;8.284;2024-01-30T13:17:03;1.30;;;0.80;;
162;SDS011;3946;48.958;8.284;2024-01-30T13:19:48;1.30;;;0.77;;
162;SDS011;3946;48.958;8.284;2024-01-30T13:22:34;1.30;;;0.70;;
162;SDS011;3946;48.958;8.284;2024-01-30T13:25:21;1.27;;;0.70;;
162;SDS011;3946;48.958;8.284;2024-01-30T13:28:06;1.30;;;0.80;;
162;SDS011;3946;48.958;8.284;2024-01-30T13:30:52;1.30;;;0.80;;
162;SDS011;3946;48.958;8.284;2024-01-30T13:33:38;1.30;;;0.80;;
162;SDS011;3946;48.958;8.284;2024-01-30T13:36:23;1.30;;;0.80;;
162;SDS011;3946;48.958;8.284;2024-01-30T13:39:09;1.30;;;0.80;;
162;SDS011;3946;48.958;8.284;2024-01-30T13:41:55;1.23;;;0.70;;
162;SDS011;3946;48.958;8.284;2024-01-30T13:44:41;1.30;;;0.80;;
162;SDS011;3946;48.958;8.284;2024-01-30T13:47:27;4.90;;;1.83;;
162;SDS011;3946;48.958;8.284;2024-01-30T13:50:12;1.30;;;0.80;;
162;SDS011;3946;48.958;8.284;2024-01-30T13:53:00;1.30;;;0.80;;
162;SDS011;3946;48.958;8.284;2024-01-30T13:55:45;1.30;;;0.70;;
162;SDS011;3946;48.958;8.284;2024-01-30T13:58:32;1.27;;;0.70;;
162;SDS011;3946;48.958;8.284;2024-01-30T14:01:19;1.30;;;0.70;;
162;SDS011;3946;48.958;8.284;2024-01-30T14:04:05;1.30;;;0.80;;
162;SDS011;3946;48.958;8.284;2024-01-30T14:06:50;1.30;;;0.70;;
162;SDS011;3946;48.958;8.284;2024-01-30T14:09:36;28.73;;;10.60;;
162;SDS011;3946;48.958;8.284;2024-01-30T14:12:21;1.30;;;0.80;;
162;SDS011;3946;48.958;8.284;2024-01-30T14:15:08;3.40;;;3.20;;
162;SDS011;3946;48.958;8.284;2024-01-30T14:17:54;24.17;;;17.70;;
162;SDS011;3946;48.958;8.284;2024-01-30T14:20:40;1.30;;;0.73;;
162;SDS011;3946;48.958;8.284;2024-01-30T14:23:25;1.30;;;0.77;;
162;SDS011;3946;48.958;8.284;2024-01-30T14:26:10;100.43;;;63.53;;
162;SDS011;3946;48.958;8.284;2024-01-30T14:28:56;122.03;;;64.13;;
162;SDS011;3946;48.958;8.284;2024-01-30T14:31:42;47.07;;;26.37;;
162;SDS011;3946;48.958;8.284;2024-01-30T14:34:28;30.20;;;21.20;;
162;SDS011;3946;48.958;8.284;2024-01-30T14:37:13;40.27;;;21.47;;
162;SDS011;3946;48.958;8.284;2024-01-30T14:39:58;55.73;;;37.83;;
162;SDS011;3946;48.958;8.284;2024-01-30T14:42:44;1.50;;;1.10;;
162;SDS011;3946;48.958;8.284;2024-01-30T14:45:29;1.30;;;0.80;;
162;SDS011;3946;48.958;8.284;2024-01-30T14:48:16;1.70;;;0.90;;
162;SDS011;3946;48.958;8.284;2024-01-30T14:51:02;1.30;;;0.70;;
162;SDS011;3946;48.958;8.284;2024-01-30T14:53:47;1.30;;;0.80;;
162;SDS011;3946;48.958;8.284;2024-01-30T14:56:32;1.30;;;0.80;;
162;SDS011;3946;48.958;8.284;2024-01-30T14:59:18;1.30;;;0.70;;
162;SDS011;3946;48.958;8.284;2024-01-30T15:02:03;1.30;;;0.80;;
162;SDS011;3946;48.958;8.284;2024-01-30T15:04:50;1.30;;;0.80;;
162;SDS011;3946;48.958;8.284;2024-01-30T15:07:36;1.30;;;0.70;;
162;SDS011;3946;48.958;8.284;2024-01-30T15:10:22;1.30;;;0.80;;
162;SDS011;3946;48.958;8.284;2024-01-30T15:13:07;1.30;;;0.73;;
162;SDS011;3946;48.958;8.284;2024-01-30T15:15:53;1.27;;;0.70;;
162;SDS011;3946;48.958;8.284;2024-01-30T15:18:38;1.30;;;0.70;;
162;SDS011;3946;48.958;8.284;2024-01-30T15:21:25;1.30;;;0.73;;
162;SDS011;3946;48.958;8.284;2024-01-30T15:24:12;1.20;;;0.70;;
162;SDS011;3946;48.958;8.284;2024-01-30T15:26:59;1.30;;;0.70;;
162;SDS011;3946;48.958;8.284;2024-01-30T15:29:45;1.20;;;0.70;;
162;SDS011;3946;48.958;8.284;2024-01-30T15:32:30;1.30;;;0.80;;
162;SDS011;3946;48.958;8.284;2024-01-30T15:35:16;1.30;;;0.70;;
162;SDS011;3946;48.958;8.284;2024-01-30T15:38:02;1.23;;;0.70;;
162;SDS011;3946;48.958;8.284;2024-01-30T15:40:52;1.30;;;0.80;;
162;SDS011;3946;48.958;8.284;2024-01-30T15:43:37;1.30;;;0.70;;
162;SDS011;3946;48.958;8.284;2024-01-30T15:46:23;1.20;;;0.70;;
162;SDS011;3946;48.958;8.284;2024-01-30T15:49:08;1.30;;;0.73;;
162;SDS011;3946;48.958;8.284;2024-01-30T15:51:53;1.23;;;0.70;;
162;SDS011;3946;48.958;8.284;2024-01-30T15:54:41;1.30;;;0.80;;
162;SDS011;3946;48.958;8.284;2024-01-30T15:57:26;1.23;;;0.70;;
162;SDS011;3946;48.958;8.284;2024-01-30T16:00:12;1.30;;;0.70;;
162;SDS011;3946;48.958;8.284;2024-01-30T16:02:59;1.30;;;0.70;;
162;SDS011;3946;48.958;8.284;2024-01-30T16:05:45;1.30;;;0.80;;
162;SDS011;3946;48.958;8.284;2024-01-30T16:08:30;1.30;;;0.70;;
162;SDS011;3946;48.958;8.284;2024-01-30T16:11:17;1.23;;;0.70;;
162;SDS011;3946;48.958;8.284;2024-01-30T16:14:02;1.30;;;0.70;;
162;SDS011;3946;48.958;8.284;2024-01-30T16:16:47;1.30;;;0.80;;
162;SDS011;3946;48.958;8.284;2024-01-30T16:19:33;1.30;;;0.70;;
162;SDS011;3946;48.958;8.284;2024-01-30T16:22:18;1.30;;;0.70;;
162;SDS011;3946;48.958;8.284;2024-01-30T16:25:04;1.30;;;0.80;;
162;SDS011;3946;48.958;8.284;2024-01-30T16:27:51;1.30;;;0.70;;
162;SDS011;3946;48.958;8.284;2024-01-30T16:30:36;1.30;;;0.80;;
162;SDS011;3946;48.958;8.284;2024-01-30T16:33:21;1.30;;;0.70;;
162;SDS011;3946;48.958;8.284;2024-01-30T16:36:07;1.30;;;0.70;;
162;SDS011;3946;48.958;8.284;2024-01-30T16:38:52;1.30;;;0.70;;
162;SDS011;3946;48.958;8.284;2024-01-30T16:41:37;1.30;;;0.70;;
162;SDS011;3946;48.958;8.284;2024-01-30T16:44:24;1.30;;;0.70;;
162;SDS011;3946;48.958;8.284;2024-01-30T16:47:09;1.30;;;0.80;;
162;SDS011;3946;48.958;8.284;2024-01-30T16:49:55;1.30;;;0.70;;
162;SDS011;3946;48.958;8.284;2024-01-30T16:52:40;1.30;;;0.80;;
162;SDS011;3946;48.958;8.284;2024-01-30T16:55:26;1.27;;;0.70;;
162;SDS011;3946;48.958;8.284;2024-01-30T16:58:12;4.43;;;1.53;;
162;SDS011;3946;48.958;8.284;2024-01-30T17:00:58;1.70;;;1.07;;
162;SDS011;3946;48.958;8.284;2024-01-30T17:03:44;2.03;;;0.90;;
162;SDS011;3946;48.958;8.284;2024-01-30T17:06:29;1.27;;;0.80;;
162;SDS011;3946;48.958;8.284;2024-01-30T17:09:14;1.27;;;0.70;;
162;SDS011;3946;48.958;8.284;2024-01-30T17:12:00;1.27;;;0.70;;
162;SDS011;3946;48.958;8.284;2024-01-30T17:14:46;1.30;;;0.80;;
162;SDS011;3946;48.958;8.284;2024-01-30T17:17:34;1.30;;;0.80;;
162;SDS011;3946;48.958;8.284;2024-01-30T17:20:20;1.30;;;0.80;;
162;SDS011;3946;48.958;8.284;2024-01-30T17:23:06;1.30;;;0.80;;
162;SDS011;3946;48.958;8.284;2024-01-30T17:25:51;1.30;;;0.70;;